ASN logo
Last updated: 18 June 2021
Statuts:Préliminaire
Date:samedi 29 mai 2021
Heure:10:55
Type/Sous-type:Silhouette image of generic C501 model; specific model in this crash may look slightly different
Cessna 501 Citation I/SP
Compagnie:JL&GL Productions LP
Immatriculation: N66BK
Numéro de série: 501-0254
Année de Fabrication: 1982
Moteurs: 2 Pratt & Whitney Canada JT15D-1B
Equipage:victimes: 1 / à bord: 1
Passagers:victimes: 6 / à bord: 6
Total:victimes: 7 / à bord: 7
Dégats de l'appareil: Perte Totale
Conséquences: Written off (damaged beyond repair)
Lieu de l'accident:près de Smyrna Airport, TN (MQY) (   Etats-Unis d'Amérique)
Phase de vol: En montée initiale (ICL)
Nature:Privé
Aéroport de départ:Smyrna Airport, TN (MQY/KMQY), Etats-Unis d'Amérique
Aéroport de destination:Palm Beach-Palm Beach County Airport, FL (LNA/KLNA), Etats-Unis d'Amérique
Détails:
A Cessna 501 Citation I/SP crashed into Percy Priest Lake, shortly after takeoff from Smyrna Airport, Tennessee (MQY).
The aircraft took off from runway 32 at 10:53 and commenced a climbing right hand turn. After reaching 2900 feet the aircraft descended to about 1800 feet before climbing again to 3000 feet. The aircraft then began a rapid descent and impacted the water of Percy Priest Lake.

Weather at the time of the accident included a 1300 feet overcast.

Sources:
» www.newschannel5.com
» globe.adsbexchange.com
» www.newschannel5.com

METAR Weather report:
15:56 UTC / 10:56 local time:
KMQY 291556Z 31010KT 10SM OVC013 14/12 A3004 RMK AO2 SLP178 T01390117

16:03 UTC / 11:03 local time:
KMQY 291603Z 30011KT 10SM OVC013 14/12 A3004 RMK AO2


Photos

photo of Cessna-501-Citation-I-N66BK
photo of Cessna-501-Citation-I-N66BK
accident date: 29-05-2021
type: Cessna 501 Citation I
registration: N66BK
 

Plan
Ce plan montre l'aéroport de départ ainsi que la supposée destination du vol. La ligne fixe reliant les deux aéroports n'est pas le plan de vol exact.
La distance entre Smyrna Airport, TN et Palm Beach-Palm Beach County Airport, FL est de 1204 km (752 miles).
Accident location: Approximate; accuracy within a few kilometers.

Les informations ci-dessus ne représentent pas l'opinion de la 'Flight Safety Foundation' ou de 'Aviation Safety Network' sur les causes de l'accident. Ces informations prélimimaires sont basées sur les faits tel qu'ils sont connus à ce jour.
languages: languages

Share